createdAt,value
2019-03-10T00:00:32.394Z,21.00
2019-03-10T00:01:32.390Z,29.00
2019-03-10T00:02:32.389Z,23.60
2019-03-10T00:03:32.355Z,22.30
2019-03-10T00:04:32.349Z,22.60
2019-03-10T00:05:32.336Z,22.50
2019-03-10T00:06:32.338Z,21.90
2019-03-10T00:07:32.335Z,23.10
2019-03-10T00:08:32.305Z,22.60
2019-03-10T00:09:32.316Z,21.80
2019-03-10T00:10:32.284Z,21.90
2019-03-10T00:11:32.272Z,27.70
2019-03-10T00:12:32.291Z,24.30
2019-03-10T00:13:32.251Z,21.60
2019-03-10T00:14:32.240Z,22.30
2019-03-10T00:15:32.230Z,22.80
2019-03-10T00:16:32.218Z,21.30
2019-03-10T00:17:32.232Z,25.00
2019-03-10T00:18:32.198Z,22.20
2019-03-10T00:19:32.198Z,19.30
2019-03-10T00:20:32.175Z,22.80
2019-03-10T00:21:32.164Z,24.10
2019-03-10T00:22:32.188Z,28.20
2019-03-10T00:23:32.142Z,23.70
2019-03-10T00:24:32.133Z,22.60
2019-03-10T00:25:32.159Z,19.50
2019-03-10T00:26:32.110Z,22.20
2019-03-10T00:27:32.100Z,18.80
2019-03-10T00:28:32.116Z,23.10
2019-03-10T00:29:32.078Z,23.00
2019-03-10T00:30:32.111Z,20.80
2019-03-10T00:31:32.064Z,24.90
2019-03-10T00:32:32.046Z,20.90
2019-03-10T00:33:32.054Z,21.50
2019-03-10T00:34:32.025Z,20.90
2019-03-10T00:35:32.017Z,21.30
2019-03-10T00:36:32.009Z,24.20
2019-03-10T00:37:32.013Z,20.90
2019-03-10T00:38:32.014Z,21.70
2019-03-10T00:39:31.970Z,21.80
2019-03-10T00:40:39.002Z,23.60
2019-03-10T00:41:31.949Z,23.70
2019-03-10T00:42:32.158Z,19.50
2019-03-10T00:43:31.947Z,21.70
2019-03-10T00:44:31.919Z,23.10
2019-03-10T00:45:31.917Z,21.50
2019-03-10T00:46:31.895Z,19.30
2019-03-10T00:47:31.907Z,19.70
2019-03-10T00:48:31.890Z,20.20
2019-03-10T00:49:31.868Z,21.20
2019-03-10T00:50:31.858Z,20.70
2019-03-10T00:51:34.163Z,23.90
2019-03-10T00:52:31.829Z,25.40
2019-03-10T00:53:31.841Z,20.50
2019-03-10T00:54:31.807Z,17.70
2019-03-10T00:55:31.796Z,21.00
2019-03-10T00:56:31.796Z,15.20
2019-03-10T00:57:31.839Z,24.30
2019-03-10T00:58:31.786Z,20.30
2019-03-10T00:59:31.754Z,21.50
2019-03-10T01:00:31.743Z,25.70
2019-03-10T01:01:31.731Z,22.40
2019-03-10T01:02:31.727Z,19.90
2019-03-10T01:03:31.738Z,27.50
2019-03-10T01:04:31.704Z,17.90
2019-03-10T01:05:31.703Z,22.00
2019-03-10T01:06:31.685Z,19.10
2019-03-10T01:07:31.667Z,19.10
2019-03-10T01:08:31.689Z,17.20
2019-03-10T01:09:31.710Z,23.70
2019-03-10T01:10:31.650Z,18.10
2019-03-10T01:11:31.626Z,17.90
2019-03-10T01:12:31.615Z,17.20
2019-03-10T01:13:31.628Z,19.60
2019-03-10T01:14:31.596Z,19.80
2019-03-10T01:15:31.591Z,17.30
2019-03-10T01:16:31.575Z,16.60
2019-03-10T01:17:31.560Z,21.80
2019-03-10T01:18:31.580Z,17.70
2019-03-10T01:19:31.540Z,22.40
2019-03-10T01:20:31.529Z,20.20
2019-03-10T01:21:31.515Z,18.50
2019-03-10T01:22:31.507Z,17.60
2019-03-10T01:23:31.522Z,18.30
2019-03-10T01:24:31.489Z,16.30
2019-03-10T01:25:31.476Z,16.30
2019-03-10T01:26:31.464Z,14.70
2019-03-10T01:27:31.450Z,19.50
2019-03-10T01:28:31.465Z,19.20
2019-03-10T01:29:31.430Z,26.80
2019-03-10T01:30:31.420Z,21.20
2019-03-10T01:31:31.443Z,19.20
2019-03-10T01:32:31.408Z,22.60
2019-03-10T01:33:31.406Z,13.20
2019-03-10T01:34:31.377Z,17.80
2019-03-10T01:35:31.369Z,20.10
2019-03-10T01:36:31.357Z,18.60
2019-03-10T01:37:31.413Z,16.50
2019-03-10T01:38:31.352Z,15.10
2019-03-10T01:39:31.319Z,21.10
2019-03-10T01:40:31.312Z,16.20
2019-03-10T01:41:31.308Z,22.00
2019-03-10T01:42:31.287Z,18.30
2019-03-10T01:43:31.298Z,15.10
2019-03-10T01:44:31.267Z,16.50
2019-03-10T01:45:31.272Z,20.70
2019-03-10T01:46:31.244Z,22.40
2019-03-10T01:47:31.239Z,23.30
2019-03-10T01:48:31.246Z,15.00
2019-03-10T01:49:31.216Z,15.20
2019-03-10T01:50:31.206Z,16.60
2019-03-10T01:51:31.201Z,18.20
2019-03-10T01:52:31.188Z,16.10
2019-03-10T01:53:31.195Z,16.50
2019-03-10T01:54:31.160Z,20.20
2019-03-10T01:55:31.149Z,19.90
2019-03-10T01:56:31.148Z,19.60
2019-03-10T01:57:31.127Z,16.70
2019-03-10T01:58:31.141Z,19.30
2019-03-10T01:59:31.108Z,16.90
2019-03-10T02:00:31.110Z,23.80
2019-03-10T02:01:31.152Z,16.90
2019-03-10T02:02:31.070Z,19.30
2019-03-10T02:03:31.086Z,22.00
2019-03-10T02:04:31.144Z,18.40
2019-03-10T02:05:31.038Z,25.70
2019-03-10T02:06:31.037Z,17.50
2019-03-10T02:07:31.020Z,18.30
2019-03-10T02:08:31.005Z,19.10
2019-03-10T02:09:31.019Z,18.60
2019-03-10T02:10:31.019Z,23.40
2019-03-10T02:11:30.977Z,17.90
2019-03-10T02:12:30.967Z,19.80
2019-03-10T02:13:30.962Z,24.60
2019-03-10T02:14:30.963Z,17.30
2019-03-10T02:15:30.936Z,19.70
2019-03-10T02:16:30.918Z,18.50
2019-03-10T02:17:30.971Z,20.50
2019-03-10T02:18:30.898Z,17.10
2019-03-10T02:19:30.912Z,19.30
2019-03-10T02:20:30.888Z,17.20
2019-03-10T02:21:30.863Z,21.10
2019-03-10T02:22:30.853Z,22.90
2019-03-10T02:23:30.847Z,19.80
2019-03-10T02:24:30.864Z,20.90
2019-03-10T02:25:30.821Z,20.10
2019-03-10T02:26:30.809Z,22.40
2019-03-10T02:27:30.803Z,19.50
2019-03-10T02:28:30.788Z,23.90
2019-03-10T02:29:30.799Z,19.20
2019-03-10T02:30:30.852Z,19.10
2019-03-10T02:31:30.756Z,20.50
2019-03-10T02:32:30.759Z,19.30
2019-03-10T02:33:30.741Z,18.60
2019-03-10T02:34:30.744Z,18.60
2019-03-10T02:35:30.737Z,18.10
2019-03-10T02:36:30.710Z,16.90
2019-03-10T02:37:30.706Z,15.50
2019-03-10T02:38:30.692Z,17.10
2019-03-10T02:39:30.692Z,18.20
2019-03-10T02:40:30.658Z,23.70
2019-03-10T02:41:30.648Z,23.00
2019-03-10T02:42:30.643Z,18.00
2019-03-10T02:43:30.638Z,20.30
2019-03-10T02:44:30.654Z,15.30
2019-03-10T02:45:30.717Z,14.70
2019-03-10T02:46:30.591Z,19.90
2019-03-10T02:47:30.582Z,18.30
2019-03-10T02:48:30.574Z,17.10
2019-03-10T02:49:30.588Z,19.80
2019-03-10T02:50:30.557Z,16.60
2019-03-10T02:51:30.539Z,19.10
2019-03-10T02:52:30.533Z,16.50
2019-03-10T02:53:30.586Z,16.00
2019-03-10T02:54:30.545Z,16.10
2019-03-10T02:55:30.498Z,14.30
2019-03-10T02:56:30.489Z,14.50
2019-03-10T02:57:30.476Z,16.70
2019-03-10T02:58:30.462Z,15.70
2019-03-10T02:59:30.473Z,16.60
2019-03-10T03:00:30.444Z,13.90
2019-03-10T03:01:30.431Z,15.40
2019-03-10T03:02:30.422Z,18.90
2019-03-10T03:03:30.412Z,19.10
2019-03-10T03:04:30.416Z,18.00
2019-03-10T03:05:30.387Z,22.60
2019-03-10T03:06:30.377Z,20.70
2019-03-10T03:07:30.364Z,16.50
2019-03-10T03:08:30.367Z,15.50
2019-03-10T03:09:30.368Z,18.00
2019-03-10T03:10:30.332Z,19.70
2019-03-10T03:11:30.322Z,14.20
2019-03-10T03:12:30.311Z,18.80
2019-03-10T03:13:30.315Z,19.70
2019-03-10T03:14:30.308Z,14.60
2019-03-10T03:15:30.289Z,15.90
2019-03-10T03:16:30.286Z,18.50
2019-03-10T03:17:30.266Z,16.50
2019-03-10T03:18:30.247Z,18.10
2019-03-10T03:19:30.257Z,15.60
2019-03-10T03:20:30.225Z,13.30
2019-03-10T03:21:42.436Z,16.70
2019-03-10T03:22:31.231Z,16.80
2019-03-10T03:23:30.201Z,13.20
2019-03-10T03:24:30.202Z,18.90
2019-03-10T03:25:30.180Z,16.00
2019-03-10T03:26:30.164Z,12.70
2019-03-10T03:27:30.148Z,12.20
2019-03-10T03:28:30.138Z,13.40
2019-03-10T03:29:30.148Z,14.20
2019-03-10T03:30:30.127Z,8.00
2019-03-10T03:31:30.115Z,7.60
2019-03-10T03:32:30.119Z,6.00
2019-03-10T03:33:30.111Z,7.40
2019-03-10T03:34:30.095Z,8.70
2019-03-10T03:35:30.063Z,9.90
2019-03-10T03:36:30.056Z,7.60
2019-03-10T03:37:30.047Z,9.30
2019-03-10T03:38:30.031Z,5.70
2019-03-10T03:39:30.058Z,10.10
2019-03-10T03:40:30.017Z,8.80
2019-03-10T03:41:29.996Z,7.60
2019-03-10T03:42:29.995Z,6.50
2019-03-10T03:43:30.005Z,7.10
2019-03-10T03:44:30.000Z,6.70
2019-03-10T03:45:29.970Z,9.20
2019-03-10T03:46:29.965Z,8.30
2019-03-10T03:47:29.933Z,6.00
2019-03-10T03:48:29.934Z,7.30
2019-03-10T03:49:29.918Z,10.80
2019-03-10T03:50:29.938Z,8.00
2019-03-10T03:51:29.890Z,7.40
2019-03-10T03:52:29.910Z,9.30
2019-03-10T03:53:29.870Z,7.60
2019-03-10T03:54:29.864Z,6.40
2019-03-10T03:55:29.879Z,11.10
2019-03-10T03:56:29.840Z,8.30
2019-03-10T03:57:29.826Z,9.00
2019-03-10T03:58:29.821Z,11.20
2019-03-10T03:59:29.804Z,7.80
2019-03-10T04:00:29.814Z,8.10
2019-03-10T04:01:29.793Z,12.40
2019-03-10T04:02:29.790Z,10.30
2019-03-10T04:03:29.775Z,10.00
2019-03-10T04:04:29.750Z,8.00
2019-03-10T04:05:29.760Z,8.60
2019-03-10T04:06:29.735Z,7.40
2019-03-10T04:07:29.722Z,10.10
2019-03-10T04:08:29.707Z,10.20
2019-03-10T04:09:29.702Z,9.80
2019-03-10T04:10:29.709Z,13.50
2019-03-10T04:11:29.678Z,9.40
2019-03-10T04:12:29.734Z,9.70
2019-03-10T04:13:29.672Z,7.40
2019-03-10T04:14:29.643Z,10.70
2019-03-10T04:15:29.650Z,11.80
2019-03-10T04:16:29.621Z,6.90
2019-03-10T04:17:29.615Z,7.90
2019-03-10T04:18:29.600Z,11.30
2019-03-10T04:19:29.601Z,8.30
2019-03-10T04:20:29.609Z,9.10
2019-03-10T04:21:29.571Z,14.30
2019-03-10T04:22:29.558Z,11.70
2019-03-10T04:23:29.548Z,10.40
2019-03-10T04:24:29.536Z,8.60
2019-03-10T04:25:29.567Z,11.40
2019-03-10T04:26:29.522Z,10.60
2019-03-10T04:27:29.515Z,11.10
2019-03-10T04:28:29.494Z,7.40
2019-03-10T04:29:29.486Z,9.90
2019-03-10T04:30:29.491Z,10.40
2019-03-10T04:31:29.469Z,10.70
2019-03-10T04:32:29.485Z,10.90
2019-03-10T04:33:29.444Z,8.90
2019-03-10T04:34:29.444Z,10.20
2019-03-10T04:35:29.457Z,9.20
2019-03-10T04:36:29.410Z,10.60
2019-03-10T04:37:29.402Z,9.60
2019-03-10T04:38:29.391Z,10.20
2019-03-10T04:39:29.383Z,10.00
2019-03-10T04:40:29.388Z,10.50
2019-03-10T04:41:29.356Z,9.10
2019-03-10T04:42:29.347Z,11.30
2019-03-10T04:43:29.335Z,14.30
2019-03-10T04:44:29.325Z,12.70
2019-03-10T04:45:29.344Z,10.80
2019-03-10T04:46:29.304Z,10.90
2019-03-10T04:47:29.293Z,9.50
2019-03-10T04:48:29.285Z,8.80
2019-03-10T04:49:29.282Z,9.40
2019-03-10T04:50:29.287Z,11.00
2019-03-10T04:51:29.252Z,10.70
2019-03-10T04:52:29.246Z,13.40
2019-03-10T04:53:29.232Z,13.00
2019-03-10T04:54:29.223Z,9.60
2019-03-10T04:55:29.231Z,13.00
2019-03-10T04:56:29.201Z,8.40
2019-03-10T04:57:29.191Z,13.90
2019-03-10T04:58:29.184Z,10.10
2019-03-10T04:59:29.172Z,6.10
2019-03-10T05:00:29.177Z,11.20
2019-03-10T05:01:29.151Z,14.10
2019-03-10T05:02:29.139Z,8.60
2019-03-10T05:03:29.125Z,8.70
2019-03-10T05:04:31.451Z,8.20
2019-03-10T05:05:29.131Z,7.50
2019-03-10T05:06:29.096Z,7.30
2019-03-10T05:07:29.086Z,9.00
2019-03-10T05:08:29.081Z,6.60
2019-03-10T05:09:29.065Z,5.90
2019-03-10T05:10:29.074Z,6.00
2019-03-10T05:11:29.048Z,10.60
2019-03-10T05:12:29.050Z,10.30
2019-03-10T05:13:29.024Z,9.90
2019-03-10T05:14:29.018Z,8.60
2019-03-10T05:15:29.022Z,7.80
2019-03-10T05:16:28.991Z,7.60
2019-03-10T05:17:28.982Z,10.30
2019-03-10T05:18:28.972Z,8.20
2019-03-10T05:19:28.963Z,6.00
2019-03-10T05:20:28.969Z,6.70
2019-03-10T05:21:28.940Z,8.50
2019-03-10T05:22:28.930Z,6.60
2019-03-10T05:23:28.919Z,8.60
2019-03-10T05:24:28.908Z,9.40
2019-03-10T05:25:28.924Z,11.50
2019-03-10T05:26:28.888Z,8.20
2019-03-10T05:27:28.878Z,11.40
2019-03-10T05:28:28.867Z,10.40
2019-03-10T05:29:28.858Z,8.30
2019-03-10T05:30:28.872Z,7.90
2019-03-10T05:31:28.843Z,9.20
2019-03-10T05:32:28.828Z,7.20
2019-03-10T05:33:28.814Z,7.00
2019-03-10T05:34:28.826Z,29.50
2019-03-10T05:35:28.794Z,21.10
2019-03-10T05:36:28.803Z,22.00
2019-03-10T05:37:28.779Z,32.10
2019-03-10T05:38:28.778Z,22.20
2019-03-10T05:39:28.759Z,14.50
2019-03-10T05:40:28.743Z,12.70
2019-03-10T05:41:28.755Z,10.10
2019-03-10T05:42:28.722Z,9.20
2019-03-10T05:43:28.713Z,6.70
2019-03-10T05:44:28.730Z,9.40
2019-03-10T05:45:28.691Z,10.30
2019-03-10T05:46:28.709Z,7.70
2019-03-10T05:47:28.671Z,7.20
2019-03-10T05:48:28.659Z,11.20
2019-03-10T05:49:28.649Z,10.90
2019-03-10T05:50:28.655Z,9.10
2019-03-10T05:51:28.650Z,9.30
2019-03-10T05:52:28.618Z,8.30
2019-03-10T05:53:28.614Z,9.40
2019-03-10T05:54:28.598Z,9.60
2019-03-10T05:55:28.588Z,7.60
2019-03-10T05:56:28.597Z,8.00
2019-03-10T05:57:28.576Z,10.30
2019-03-10T05:58:28.555Z,9.00
2019-03-10T05:59:28.545Z,6.90
2019-03-10T06:00:28.536Z,9.50
2019-03-10T06:01:28.545Z,7.10
2019-03-10T06:02:28.514Z,8.40
2019-03-10T06:03:28.509Z,7.90
2019-03-10T06:04:28.513Z,10.70
2019-03-10T06:05:28.483Z,10.90
2019-03-10T06:06:28.496Z,7.50
2019-03-10T06:07:28.475Z,8.40
2019-03-10T06:08:28.453Z,12.60
2019-03-10T06:09:28.441Z,7.70
2019-03-10T06:10:28.453Z,9.80
2019-03-10T06:11:28.444Z,8.00
2019-03-10T06:12:28.411Z,9.30
2019-03-10T06:13:28.400Z,11.80
2019-03-10T06:14:28.393Z,7.50
2019-03-10T06:15:28.402Z,8.40
2019-03-10T06:16:28.390Z,13.20
2019-03-10T06:17:28.368Z,8.70
2019-03-10T06:18:28.349Z,9.80
2019-03-10T06:19:28.342Z,8.30
2019-03-10T06:20:28.340Z,8.30
2019-03-10T06:21:28.346Z,11.80
2019-03-10T06:22:28.309Z,14.20
2019-03-10T06:23:28.298Z,8.90
2019-03-10T06:24:28.290Z,9.20
2019-03-10T06:25:28.275Z,12.40
2019-03-10T06:26:28.288Z,10.80
2019-03-10T06:27:28.257Z,11.30
2019-03-10T06:28:28.244Z,9.60
2019-03-10T06:29:28.230Z,8.10
2019-03-10T06:30:28.318Z,9.90
2019-03-10T06:31:28.234Z,6.40
2019-03-10T06:32:28.210Z,11.50
2019-03-10T06:33:28.191Z,7.30
2019-03-10T06:34:28.195Z,9.40
2019-03-10T06:35:28.172Z,7.70
2019-03-10T06:36:28.177Z,8.40
2019-03-10T06:37:28.149Z,7.90
2019-03-10T06:38:28.145Z,5.70
2019-03-10T06:39:28.138Z,7.40
2019-03-10T06:40:32.012Z,5.70
2019-03-10T06:41:28.132Z,9.80
2019-03-10T06:42:28.097Z,7.50
2019-03-10T06:43:28.091Z,8.40
2019-03-10T06:44:28.076Z,9.20
2019-03-10T06:45:28.067Z,9.10
2019-03-10T06:46:28.083Z,7.40
2019-03-10T06:47:28.044Z,7.80
2019-03-10T06:48:28.034Z,11.70
2019-03-10T06:49:28.025Z,9.50
2019-03-10T06:50:28.015Z,8.50
2019-03-10T06:51:28.026Z,6.20
2019-03-10T06:52:28.000Z,10.10
2019-03-10T06:53:27.984Z,7.00
2019-03-10T06:54:27.970Z,6.20
2019-03-10T06:55:27.962Z,6.60
2019-03-10T06:56:28.024Z,7.80
2019-03-10T06:57:27.939Z,9.20
2019-03-10T06:58:27.931Z,9.40
2019-03-10T06:59:27.919Z,8.80
2019-03-10T07:00:27.906Z,7.30
2019-03-10T07:01:27.918Z,26.50
2019-03-10T07:02:27.885Z,61.50
2019-03-10T07:03:27.882Z,27.80
2019-03-10T07:04:27.880Z,6.90
2019-03-10T07:05:27.855Z,12.50
2019-03-10T07:06:27.876Z,9.80
2019-03-10T07:07:27.833Z,12.20
2019-03-10T07:08:27.837Z,8.40
2019-03-10T07:09:27.815Z,12.20
2019-03-10T07:10:27.808Z,10.60
2019-03-10T07:11:27.833Z,9.90
2019-03-10T07:12:27.783Z,10.30
2019-03-10T07:13:27.770Z,7.80
2019-03-10T07:14:27.763Z,7.80
2019-03-10T07:15:27.763Z,9.40
2019-03-10T07:16:27.783Z,8.50
2019-03-10T07:17:27.733Z,7.10
2019-03-10T07:18:27.729Z,7.50
2019-03-10T07:19:27.713Z,7.50
2019-03-10T07:20:27.696Z,9.80
2019-03-10T07:21:27.693Z,10.10
2019-03-10T07:22:27.708Z,6.90
2019-03-10T07:23:27.669Z,10.20
2019-03-10T07:24:27.657Z,12.20
2019-03-10T07:25:27.648Z,10.00
2019-03-10T07:26:27.645Z,10.60
2019-03-10T07:27:27.643Z,9.40
2019-03-10T07:28:27.614Z,10.00
2019-03-10T07:29:27.604Z,7.10
2019-03-10T07:30:27.594Z,10.30
2019-03-10T07:31:27.600Z,7.60
2019-03-10T07:32:27.594Z,10.20
2019-03-10T07:33:27.564Z,7.70
2019-03-10T07:34:27.560Z,9.80
2019-03-10T07:35:27.555Z,7.70
2019-03-10T07:36:27.534Z,7.60
2019-03-10T07:37:27.543Z,9.00
2019-03-10T07:38:27.512Z,7.70
2019-03-10T07:39:27.527Z,9.10
2019-03-10T07:40:27.496Z,9.20
2019-03-10T07:41:27.485Z,6.20
2019-03-10T07:42:27.500Z,6.60
2019-03-10T07:43:27.456Z,10.50
2019-03-10T07:44:27.448Z,9.90
2019-03-10T07:45:27.465Z,9.40
2019-03-10T07:46:27.430Z,11.20
2019-03-10T07:47:27.441Z,9.50
2019-03-10T07:48:27.410Z,9.60
2019-03-10T07:49:27.410Z,9.50
2019-03-10T07:50:27.399Z,13.60
2019-03-10T07:51:27.376Z,15.00
2019-03-10T07:52:27.384Z,8.20
2019-03-10T07:53:27.361Z,10.10
2019-03-10T07:54:27.350Z,10.60
2019-03-10T07:55:27.339Z,10.90
2019-03-10T07:56:27.324Z,7.90
2019-03-10T07:57:27.355Z,9.30
2019-03-10T07:58:27.311Z,9.90
2019-03-10T07:59:27.291Z,10.70
2019-03-10T08:00:27.286Z,7.90
2019-03-10T08:01:27.275Z,11.50
2019-03-10T08:02:27.278Z,10.50
2019-03-10T08:03:27.250Z,13.60
2019-03-10T08:04:27.238Z,14.50
2019-03-10T08:05:27.239Z,15.40
2019-03-10T08:06:27.217Z,11.50
2019-03-10T08:07:27.231Z,10.60
2019-03-10T08:08:27.200Z,8.50
2019-03-10T08:09:27.188Z,14.90
2019-03-10T08:10:27.176Z,13.20
2019-03-10T08:11:27.163Z,9.50
2019-03-10T08:12:27.178Z,12.40
2019-03-10T08:13:27.147Z,8.80
2019-03-10T08:14:27.141Z,12.20
2019-03-10T08:15:27.129Z,8.80
2019-03-10T08:16:27.112Z,10.90
2019-03-10T08:17:27.127Z,9.20
2019-03-10T08:18:27.091Z,12.40
2019-03-10T08:19:27.082Z,12.90
2019-03-10T08:20:27.071Z,10.50
2019-03-10T08:21:27.067Z,14.90
2019-03-10T08:22:27.070Z,11.80
2019-03-10T08:23:27.045Z,13.30
2019-03-10T08:24:27.046Z,9.80
2019-03-10T08:25:27.016Z,11.20
2019-03-10T08:26:27.020Z,10.50
2019-03-10T08:27:27.024Z,10.80
2019-03-10T08:28:26.997Z,9.90
2019-03-10T08:29:26.979Z,8.20
2019-03-10T08:30:26.972Z,11.80
2019-03-10T08:31:26.952Z,10.80
2019-03-10T08:32:26.966Z,11.70
2019-03-10T08:33:26.947Z,12.70
2019-03-10T08:34:26.928Z,13.80
2019-03-10T08:35:26.914Z,7.40
2019-03-10T08:36:26.899Z,9.20
2019-03-10T08:37:26.908Z,6.30
2019-03-10T08:38:26.882Z,8.90
2019-03-10T08:39:26.865Z,6.50
2019-03-10T08:40:26.856Z,10.80
2019-03-10T08:41:26.852Z,9.90
2019-03-10T08:42:26.873Z,7.20
2019-03-10T08:43:26.822Z,7.50
2019-03-10T08:44:26.809Z,9.40
2019-03-10T08:45:26.812Z,8.10
2019-03-10T08:46:26.792Z,9.10
2019-03-10T08:47:26.803Z,6.90
2019-03-10T08:48:26.768Z,7.00
2019-03-10T08:49:26.768Z,10.20
2019-03-10T08:50:26.750Z,8.10
2019-03-10T08:51:26.739Z,8.90
2019-03-10T08:52:26.752Z,8.90
2019-03-10T08:53:26.712Z,7.10
2019-03-10T08:54:26.703Z,6.10
2019-03-10T08:55:26.709Z,5.10
2019-03-10T08:56:26.679Z,5.40
2019-03-10T08:57:26.817Z,5.60
2019-03-10T08:58:26.671Z,4.90
2019-03-10T08:59:26.654Z,4.40
2019-03-10T09:00:26.649Z,2.90
2019-03-10T09:01:26.627Z,2.30
2019-03-10T09:02:26.672Z,2.00
2019-03-10T09:03:26.655Z,3.00
2019-03-10T09:04:26.595Z,1.80
2019-03-10T09:05:26.595Z,2.10
2019-03-10T09:06:26.574Z,1.40
2019-03-10T09:07:26.560Z,2.30
2019-03-10T09:08:26.569Z,1.70
2019-03-10T09:09:26.541Z,2.90
2019-03-10T09:10:26.531Z,2.20
2019-03-10T09:11:26.518Z,2.10
2019-03-10T09:12:26.512Z,3.10
2019-03-10T09:13:26.512Z,2.40
2019-03-10T09:14:26.480Z,1.90
2019-03-10T09:15:26.467Z,1.30
2019-03-10T09:16:26.465Z,1.50
2019-03-10T09:17:26.448Z,3.00
2019-03-10T09:18:26.476Z,1.80
2019-03-10T09:19:26.424Z,3.20
2019-03-10T09:20:26.414Z,1.90
2019-03-10T09:21:26.401Z,2.50
2019-03-10T09:22:26.398Z,2.10
2019-03-10T09:23:26.403Z,2.50
2019-03-10T09:24:26.366Z,1.40
2019-03-10T09:25:26.358Z,1.60
2019-03-10T09:26:26.353Z,2.50
2019-03-10T09:27:28.368Z,3.40
2019-03-10T09:28:26.351Z,1.00
2019-03-10T09:29:26.311Z,2.30
2019-03-10T09:30:26.300Z,2.70
2019-03-10T09:31:26.312Z,3.00
2019-03-10T09:32:26.281Z,3.20
2019-03-10T09:33:26.294Z,2.60
2019-03-10T09:34:26.261Z,4.30
2019-03-10T09:35:26.247Z,3.20
2019-03-10T09:36:26.233Z,3.50
2019-03-10T09:37:26.233Z,1.60
2019-03-10T09:38:26.238Z,2.60
2019-03-10T09:39:26.198Z,2.80
2019-03-10T09:40:26.195Z,2.80
2019-03-10T09:41:26.180Z,3.50
2019-03-10T09:42:26.167Z,2.60
2019-03-10T09:43:26.174Z,3.10
2019-03-10T09:44:26.152Z,2.70
2019-03-10T09:45:26.142Z,3.10
2019-03-10T09:46:26.124Z,4.10
2019-03-10T09:47:26.113Z,2.90
2019-03-10T09:48:26.115Z,4.20
2019-03-10T09:49:26.088Z,4.30
2019-03-10T09:50:26.080Z,4.30
2019-03-10T09:51:26.066Z,3.40
2019-03-10T09:52:26.054Z,1.80
2019-03-10T09:53:26.061Z,1.20
2019-03-10T09:54:26.033Z,4.20
2019-03-10T09:55:26.018Z,3.50
2019-03-10T09:56:26.017Z,2.40
2019-03-10T09:57:25.998Z,5.60
2019-03-10T09:58:26.006Z,5.70
2019-03-10T09:59:25.978Z,3.60
2019-03-10T10:00:25.967Z,2.30
2019-03-10T10:01:25.952Z,4.20
2019-03-10T10:02:25.950Z,5.20
2019-03-10T10:03:25.952Z,3.00
2019-03-10T10:04:25.918Z,5.40
2019-03-10T10:05:25.910Z,2.00
2019-03-10T10:06:25.903Z,3.90
2019-03-10T10:07:25.896Z,2.20
2019-03-10T10:08:25.895Z,3.10
2019-03-10T10:09:25.870Z,3.80
2019-03-10T10:10:25.854Z,1.80
2019-03-10T10:11:25.856Z,3.10
2019-03-10T10:12:25.829Z,3.60
2019-03-10T10:13:25.837Z,2.70
2019-03-10T10:14:25.812Z,2.50
2019-03-10T10:15:25.803Z,3.10
2019-03-10T10:16:25.786Z,2.30
2019-03-10T10:17:25.776Z,3.60
2019-03-10T10:18:25.784Z,4.70
2019-03-10T10:19:25.754Z,4.10
2019-03-10T10:20:26.835Z,1.70
2019-03-10T10:21:25.737Z,3.60
2019-03-10T10:22:25.722Z,4.40
2019-03-10T10:23:25.730Z,3.50
2019-03-10T10:24:25.697Z,3.30
2019-03-10T10:25:25.687Z,4.90
2019-03-10T10:26:25.687Z,3.90
2019-03-10T10:27:25.673Z,3.30
2019-03-10T10:28:25.681Z,3.70
2019-03-10T10:29:25.646Z,3.40
2019-03-10T10:30:25.633Z,5.70
2019-03-10T10:31:25.622Z,5.80
2019-03-10T10:32:25.614Z,6.50
2019-03-10T10:33:25.629Z,5.20
2019-03-10T10:34:25.592Z,3.40
2019-03-10T10:35:25.595Z,6.90
2019-03-10T10:36:25.569Z,4.30
2019-03-10T10:37:25.560Z,5.50
2019-03-10T10:38:25.614Z,6.70
2019-03-10T10:39:25.549Z,4.50
2019-03-10T10:40:25.523Z,6.30
2019-03-10T10:41:25.515Z,6.70
2019-03-10T10:42:25.512Z,9.60
2019-03-10T10:43:25.491Z,6.70
2019-03-10T10:44:25.508Z,4.90
2019-03-10T10:45:25.474Z,5.70
2019-03-10T10:46:25.469Z,4.40
2019-03-10T10:47:25.464Z,5.10
2019-03-10T10:48:25.438Z,5.60
2019-03-10T10:49:25.452Z,4.30
2019-03-10T10:50:25.431Z,6.90
2019-03-10T10:51:25.405Z,9.20
2019-03-10T10:52:25.404Z,6.50
2019-03-10T10:53:25.383Z,7.60
2019-03-10T10:54:25.420Z,6.60
2019-03-10T10:55:25.381Z,8.50
2019-03-10T10:56:25.356Z,10.10
2019-03-10T10:57:25.359Z,2.90
2019-03-10T10:58:25.347Z,9.30
2019-03-10T10:59:25.337Z,4.80
2019-03-10T11:00:25.311Z,4.20
2019-03-10T11:01:25.296Z,9.20
2019-03-10T11:02:25.284Z,6.80
2019-03-10T11:03:25.275Z,9.20
2019-03-10T11:04:25.315Z,7.10
2019-03-10T11:05:25.252Z,4.40
2019-03-10T11:06:25.249Z,7.10
2019-03-10T11:07:25.231Z,8.70
2019-03-10T11:08:25.220Z,6.10
2019-03-10T11:09:25.227Z,6.30
2019-03-10T11:10:25.198Z,5.70
2019-03-10T11:11:25.185Z,5.30
2019-03-10T11:12:25.184Z,4.80
2019-03-10T11:13:25.166Z,5.60
2019-03-10T11:14:25.175Z,6.70
2019-03-10T11:15:25.146Z,5.00
2019-03-10T11:16:25.132Z,4.50
2019-03-10T11:17:25.120Z,4.10
2019-03-10T11:18:25.111Z,4.90
2019-03-10T11:19:25.130Z,5.40
2019-03-10T11:20:25.091Z,4.10
2019-03-10T11:21:25.079Z,4.70
2019-03-10T11:22:25.077Z,5.30
2019-03-10T11:23:25.058Z,3.40
2019-03-10T11:24:25.065Z,4.70
2019-03-10T11:25:25.043Z,5.40
2019-03-10T11:26:25.031Z,4.30
2019-03-10T11:27:25.024Z,5.60
2019-03-10T11:28:25.015Z,5.60
2019-03-10T11:29:25.011Z,4.60
2019-03-10T11:30:24.984Z,4.70
2019-03-10T11:31:24.992Z,4.60
2019-03-10T11:32:24.968Z,5.10
2019-03-10T11:33:27.440Z,5.30
2019-03-10T11:34:24.959Z,5.60
2019-03-10T11:35:24.925Z,5.20
2019-03-10T11:36:24.917Z,4.20
2019-03-10T11:37:24.914Z,4.70
2019-03-10T11:38:24.911Z,5.10
2019-03-10T11:39:24.902Z,5.60
2019-03-10T11:40:24.872Z,4.10
2019-03-10T11:41:33.452Z,5.30
2019-03-10T11:42:25.853Z,3.90
2019-03-10T11:43:24.852Z,3.70
2019-03-10T11:44:24.848Z,6.50
2019-03-10T11:45:24.818Z,5.70
2019-03-10T11:46:24.808Z,5.80
2019-03-10T11:47:24.798Z,7.10
2019-03-10T11:48:24.816Z,6.10
2019-03-10T11:49:24.801Z,5.10
2019-03-10T11:50:24.808Z,6.40
2019-03-10T11:51:24.755Z,7.50
2019-03-10T11:52:24.744Z,7.80
2019-03-10T11:53:25.723Z,7.00
2019-03-10T11:54:24.744Z,7.90
2019-03-10T11:55:24.819Z,11.50
2019-03-10T11:56:24.714Z,14.30
2019-03-10T11:57:24.688Z,9.50
2019-03-10T11:58:24.694Z,7.90
2019-03-10T11:59:24.690Z,10.70
2019-03-10T12:00:24.658Z,7.20
2019-03-10T12:01:24.653Z,6.20
2019-03-10T12:02:24.634Z,11.10
2019-03-10T12:03:24.648Z,9.40
2019-03-10T12:04:24.647Z,6.00
2019-03-10T12:05:24.612Z,10.10
2019-03-10T12:06:24.593Z,7.50
2019-03-10T12:07:24.605Z,10.20
2019-03-10T12:08:24.579Z,9.10
2019-03-10T12:09:24.583Z,10.30
2019-03-10T12:10:24.550Z,6.20
2019-03-10T12:11:24.543Z,9.10
2019-03-10T12:12:24.528Z,9.60
2019-03-10T12:13:24.535Z,8.70
2019-03-10T12:14:24.527Z,10.30
2019-03-10T12:15:24.496Z,8.20
2019-03-10T12:16:24.485Z,8.70
2019-03-10T12:17:24.474Z,10.90
2019-03-10T12:18:24.468Z,11.20
2019-03-10T12:19:24.501Z,8.60
2019-03-10T12:20:24.440Z,13.10
2019-03-10T12:21:24.430Z,8.90
2019-03-10T12:22:24.421Z,7.20
2019-03-10T12:23:24.411Z,8.50
2019-03-10T12:24:24.399Z,9.90
2019-03-10T12:25:24.439Z,7.50
2019-03-10T12:26:24.387Z,10.10
2019-03-10T12:27:24.362Z,9.90
2019-03-10T12:28:24.357Z,6.70
2019-03-10T12:29:24.342Z,11.80
2019-03-10T12:30:24.353Z,7.90
2019-03-10T12:31:24.322Z,8.00
2019-03-10T12:32:24.312Z,10.80
2019-03-10T12:33:24.301Z,9.80
2019-03-10T12:34:24.300Z,7.10
2019-03-10T12:35:33.925Z,10.30
2019-03-10T12:36:25.317Z,9.40
2019-03-10T12:37:24.273Z,10.20
2019-03-10T12:38:24.249Z,14.40
2019-03-10T12:39:24.232Z,12.90
2019-03-10T12:40:24.243Z,12.00
2019-03-10T12:41:24.210Z,6.80
2019-03-10T12:42:24.211Z,11.30
2019-03-10T12:43:24.191Z,10.40
2019-03-10T12:44:24.188Z,5.40
2019-03-10T12:45:24.194Z,10.60
2019-03-10T12:46:24.155Z,8.80
2019-03-10T12:47:24.146Z,10.20
2019-03-10T12:48:24.134Z,8.00
2019-03-10T12:49:24.125Z,7.20
2019-03-10T12:50:24.151Z,6.40
2019-03-10T12:51:24.103Z,7.70
2019-03-10T12:52:24.093Z,6.30
2019-03-10T12:53:24.079Z,4.30
2019-03-10T12:54:24.070Z,6.80
2019-03-10T12:55:24.082Z,8.10
2019-03-10T12:56:24.056Z,6.40
2019-03-10T12:57:24.034Z,8.40
2019-03-10T12:58:24.032Z,9.10
2019-03-10T12:59:24.022Z,8.60
2019-03-10T13:00:24.028Z,6.40
2019-03-10T13:01:23.998Z,9.30
2019-03-10T13:02:23.989Z,6.80
2019-03-10T13:03:23.969Z,8.20
2019-03-10T13:04:23.973Z,12.20
2019-03-10T13:05:23.969Z,7.60
2019-03-10T13:06:23.954Z,9.00